Time;durP1;ratioP1;P1;durP2;ratioP2;P2;SDS_P1;SDS_P2;PMS_P1;PMS_P2;Temp;Humidity;BMP_temperature;BMP_pressure;BME280_temperature;BME280_humidity;BME280_pressure;Samples;Min_cycle;Max_cycle;Signal;HPM_P1;HPM_P2
2022/09/13 00:01:24;;;;;;;;;;;12.40;99.90;;;;;;5074786;28;19995;-75
2022/09/13 00:03:49;;;;;;;;;;;12.30;99.90;;;;;;5075275;28;19909;-75
2022/09/13 00:06:17;;;;;;;;;;;12.30;99.90;;;;;;5073620;28;20354;-76
2022/09/13 00:08:43;;;;;;;;;;;12.20;99.90;;;;;;5074657;28;19912;-76
2022/09/13 00:11:13;;;;;;;;;;;12.10;99.90;;;;;;5074913;28;19919;-76
2022/09/13 00:13:39;;;;;;;;;;;12.10;99.90;;;;;;5074454;28;19915;-76
2022/09/13 00:16:09;;;;;;;;;;;12.00;99.90;;;;;;5075056;28;19994;-76
2022/09/13 00:18:35;;;;;;;;;;;12.00;99.90;;;;;;5074269;28;19912;-75
2022/09/13 00:21:08;;;;;;;;;;;11.90;99.90;;;;;;5075243;28;20246;-76
2022/09/13 00:23:34;;;;;;;;;;;11.90;99.90;;;;;;5072934;28;20297;-76
2022/09/13 00:26:19;;;;;;;;;;;11.90;99.90;;;;;;5074863;28;19909;-76
2022/09/13 00:28:45;;;;;;;;;;;11.90;99.90;;;;;;5074399;28;19912;-75
2022/09/13 00:31:10;;;;;;;;;;;11.80;99.90;;;;;;5073489;28;19971;-76
2022/09/13 00:33:36;;;;;;;;;;;11.80;99.90;;;;;;5073150;28;19936;-76
2022/09/13 00:36:06;;;;;;;;;;;11.80;99.90;;;;;;5074431;28;19913;-76
2022/09/13 00:38:33;;;;;;;;;;;11.70;99.90;;;;;;5073805;28;19919;-75
2022/09/13 00:40:59;;;;;;;;;;;11.70;99.90;;;;;;5073093;28;20002;-76
2022/09/13 00:43:44;;;;;;;;;;;11.70;99.90;;;;;;5074067;28;20019;-76
2022/09/13 00:46:16;;;;;;;;;;;11.70;99.90;;;;;;5074492;28;19913;-76
2022/09/13 00:48:43;;;;;;;;;;;11.70;99.90;;;;;;5073801;28;19908;-76
2022/09/13 00:51:09;;;;;;;;;;;11.70;99.90;;;;;;5074637;28;19916;-76
2022/09/13 00:53:37;;;;;;;;;;;11.60;99.90;;;;;;5073527;28;20038;-75
2022/09/13 00:56:08;;;;;;;;;;;11.60;99.90;;;;;;5073011;28;19909;-76
2022/09/13 00:58:43;;;;;;;;;;;11.60;99.90;;;;;;5073704;28;19908;-76
2022/09/13 01:01:10;;;;;;;;;;;11.50;99.90;;;;;;5074200;28;19986;-76
2022/09/13 01:03:36;;;;;;;;;;;11.50;99.90;;;;;;5073543;28;20306;-76
2022/09/13 01:06:04;;;;;;;;;;;11.50;99.90;;;;;;5073716;28;19909;-76
2022/09/13 01:08:31;;;;;;;;;;;11.50;99.90;;;;;;5073443;28;20309;-76
2022/09/13 01:10:58;;;;;;;;;;;11.50;99.90;;;;;;5074166;28;19919;-76
2022/09/13 01:13:31;;;;;;;;;;;11.50;99.90;;;;;;5073511;28;19924;-75
2022/09/13 01:15:57;;;;;;;;;;;11.40;99.90;;;;;;5073679;28;19916;-76
2022/09/13 01:18:23;;;;;;;;;;;11.50;99.90;;;;;;5074002;28;19909;-75
2022/09/13 01:20:49;;;;;;;;;;;11.50;99.90;;;;;;5073257;28;19909;-75
2022/09/13 01:23:33;;;;;;;;;;;11.40;99.90;;;;;;5073622;28;19912;-75
2022/09/13 01:26:25;;;;;;;;;;;11.40;99.90;;;;;;5073518;28;20353;-76
2022/09/13 01:29:17;;;;;;;;;;;11.30;99.90;;;;;;5073655;28;20007;-75
2022/09/13 01:31:49;;;;;;;;;;;11.30;99.90;;;;;;5072425;28;20737;-75
2022/09/13 01:34:15;;;;;;;;;;;11.30;99.90;;;;;;5073553;28;19909;-76
2022/09/13 01:36:51;;;;;;;;;;;11.30;99.90;;;;;;5072650;28;19919;-76
2022/09/13 01:39:22;;;;;;;;;;;11.30;99.90;;;;;;5072334;28;20491;-76
2022/09/13 01:41:54;;;;;;;;;;;11.20;99.90;;;;;;5071652;28;19908;-76
2022/09/13 01:44:36;;;;;;;;;;;11.20;99.90;;;;;;5072754;28;19921;-76
2022/09/13 01:47:10;;;;;;;;;;;11.20;99.90;;;;;;5073312;28;19924;-75
2022/09/13 01:49:54;;;;;;;;;;;11.10;99.90;;;;;;5072495;28;19912;-75
2022/09/13 01:52:28;;;;;;;;;;;11.20;99.90;;;;;;5073229;28;19920;-75
2022/09/13 01:54:54;;;;;;;;;;;11.10;99.90;;;;;;5073229;28;19908;-76
2022/09/13 01:57:22;;;;;;;;;;;11.20;99.90;;;;;;5073299;28;19919;-76
2022/09/13 02:00:14;;;;;;;;;;;11.20;99.90;;;;;;5072367;28;19908;-76
2022/09/13 02:02:45;;;;;;;;;;;11.10;99.90;;;;;;5071978;28;19923;-75
2022/09/13 02:05:11;;;;;;;;;;;11.10;99.90;;;;;;5072860;28;19935;-75
2022/09/13 02:07:39;;;;;;;;;;;11.10;99.90;;;;;;5072530;28;20346;-76
2022/09/13 02:10:07;;;;;;;;;;;11.10;99.90;;;;;;5073073;28;19913;-75
2022/09/13 02:12:34;;;;;;;;;;;11.10;99.90;;;;;;5072241;28;19948;-75
2022/09/13 02:15:09;;;;;;;;;;;11.10;99.90;;;;;;5072980;28;19909;-76
2022/09/13 02:17:37;;;;;;;;;;;11.10;99.90;;;;;;5072448;28;19908;-75
2022/09/13 02:20:15;;;;;;;;;;;11.00;99.90;;;;;;5071768;28;20292;-75
2022/09/13 02:22:43;;;;;;;;;;;10.90;99.90;;;;;;5072543;28;19966;-76
2022/09/13 02:25:11;;;;;;;;;;;10.90;99.90;;;;;;5072609;28;20320;-76
2022/09/13 02:27:37;;;;;;;;;;;11.00;99.90;;;;;;5071147;28;19912;-76
2022/09/13 02:30:07;;;;;;;;;;;11.00;99.90;;;;;;5071508;28;19912;-76
2022/09/13 02:32:35;;;;;;;;;;;10.90;99.90;;;;;;5072427;28;19958;-75
2022/09/13 02:35:06;;;;;;;;;;;10.90;99.90;;;;;;5072840;28;19913;-75
2022/09/13 02:37:33;;;;;;;;;;;10.90;99.90;;;;;;5072160;28;19916;-76
2022/09/13 02:40:01;;;;;;;;;;;10.90;99.90;;;;;;5072605;28;19999;-76
2022/09/13 02:42:35;;;;;;;;;;;10.90;99.90;;;;;;5071516;28;20277;-76
2022/09/13 02:45:01;;;;;;;;;;;10.90;99.90;;;;;;5072839;28;19925;-76
2022/09/13 02:47:26;;;;;;;;;;;10.80;99.90;;;;;;5072389;28;19913;-76
2022/09/13 02:49:52;;;;;;;;;;;10.80;99.90;;;;;;5072099;28;19991;-76
2022/09/13 02:52:28;;;;;;;;;;;10.80;99.90;;;;;;5072579;28;19913;-75
2022/09/13 02:54:53;;;;;;;;;;;10.80;99.90;;;;;;5072007;28;19908;-76
2022/09/13 02:57:35;;;;;;;;;;;10.80;99.90;;;;;;5074526;28;19913;-76
2022/09/13 03:00:01;;;;;;;;;;;10.80;99.90;;;;;;5076588;28;19946;-76
2022/09/13 03:02:30;;;;;;;;;;;10.70;99.90;;;;;;5076835;28;19954;-76
2022/09/13 03:04:56;;;;;;;;;;;10.70;99.90;;;;;;5075812;28;20066;-75
2022/09/13 03:07:21;;;;;;;;;;;10.70;99.90;;;;;;5076560;28;19915;-75
2022/09/13 03:09:53;;;;;;;;;;;10.70;99.90;;;;;;5075854;28;19913;-75
2022/09/13 03:12:36;;;;;;;;;;;10.70;99.90;;;;;;5076170;28;20369;-76
2022/09/13 03:15:13;;;;;;;;;;;10.50;99.90;;;;;;5076333;28;19915;-77
2022/09/13 03:17:59;;;;;;;;;;;10.50;99.90;;;;;;5075241;28;19916;-76
2022/09/13 03:20:34;;;;;;;;;;;10.40;99.90;;;;;;5076232;28;19909;-74
2022/09/13 03:23:09;;;;;;;;;;;10.40;99.90;;;;;;5075851;28;19908;-75
2022/09/13 03:25:41;;;;;;;;;;;10.40;99.90;;;;;;5075506;28;20005;-74
2022/09/13 03:28:25;;;;;;;;;;;10.40;99.90;;;;;;5074742;28;19909;-75
2022/09/13 03:31:06;;;;;;;;;;;10.40;99.90;;;;;;5075677;28;19956;-75
2022/09/13 03:33:45;;;;;;;;;;;10.40;99.90;;;;;;5076086;28;19909;-75
2022/09/13 03:36:13;;;;;;;;;;;10.40;99.90;;;;;;5075517;28;19952;-75
2022/09/13 03:38:45;;;;;;;;;;;10.30;99.90;;;;;;5074884;28;19920;-75
2022/09/13 03:41:18;;;;;;;;;;;10.40;99.90;;;;;;5075916;28;19912;-75
2022/09/13 03:43:55;;;;;;;;;;;10.30;99.90;;;;;;5075021;28;19920;-75
2022/09/13 03:46:23;;;;;;;;;;;10.30;99.90;;;;;;5075868;28;19916;-75
2022/09/13 03:48:50;;;;;;;;;;;10.30;99.90;;;;;;5074927;28;20303;-76
2022/09/13 03:51:16;;;;;;;;;;;10.30;99.90;;;;;;5074310;28;20412;-75
2022/09/13 03:53:43;;;;;;;;;;;10.10;99.90;;;;;;5074718;28;19951;-75
2022/09/13 03:56:13;;;;;;;;;;;10.10;99.90;;;;;;5075174;28;20325;-75
2022/09/13 03:58:39;;;;;;;;;;;10.10;99.90;;;;;;5074874;28;20007;-75
2022/09/13 04:01:04;;;;;;;;;;;10.10;99.90;;;;;;5075456;28;19967;-75
2022/09/13 04:03:30;;;;;;;;;;;10.00;99.90;;;;;;5075297;28;19908;-75
2022/09/13 04:05:56;;;;;;;;;;;10.00;99.90;;;;;;5074669;28;19911;-75
2022/09/13 04:08:21;;;;;;;;;;;10.00;99.90;;;;;;5073751;28;20408;-75
2022/09/13 04:10:49;;;;;;;;;;;9.90;99.90;;;;;;5073392;28;19917;-75
2022/09/13 04:13:14;;;;;;;;;;;9.90;99.90;;;;;;5074886;28;19995;-75
2022/09/13 04:15:40;;;;;;;;;;;9.90;99.90;;;;;;5074510;28;20379;-75
2022/09/13 04:18:05;;;;;;;;;;;9.80;99.90;;;;;;5075003;28;19996;-76
2022/09/13 04:20:31;;;;;;;;;;;9.80;99.90;;;;;;5074897;28;20276;-75
2022/09/13 04:22:57;;;;;;;;;;;9.80;99.90;;;;;;5056622;28;20003;-76
2022/09/13 04:25:23;;;;;;;;;;;9.90;99.90;;;;;;5075117;28;19931;-76
2022/09/13 04:27:57;;;;;;;;;;;9.80;99.90;;;;;;5074120;28;19914;-75
2022/09/13 04:30:22;;;;;;;;;;;9.80;99.90;;;;;;5074917;28;19958;-76
2022/09/13 04:32:48;;;;;;;;;;;9.80;99.90;;;;;;5073967;28;19916;-76
2022/09/13 04:35:18;;;;;;;;;;;9.80;99.90;;;;;;5075099;28;19964;-75
2022/09/13 04:37:44;;;;;;;;;;;9.80;99.90;;;;;;5074207;28;20316;-75
2022/09/13 04:40:10;;;;;;;;;;;9.80;99.90;;;;;;5073297;28;19922;-75
2022/09/13 04:42:35;;;;;;;;;;;9.70;99.90;;;;;;5074270;28;20369;-76
2022/09/13 04:45:01;;;;;;;;;;;9.70;99.90;;;;;;5074023;28;19924;-75
2022/09/13 04:47:27;;;;;;;;;;;9.70;99.90;;;;;;5074436;28;20354;-75
2022/09/13 04:49:53;;;;;;;;;;;9.70;99.90;;;;;;5073444;28;20007;-75
2022/09/13 04:52:19;;;;;;;;;;;9.70;99.90;;;;;;5074351;28;19912;-75
2022/09/13 04:54:46;;;;;;;;;;;9.60;99.90;;;;;;5073600;28;20357;-75
2022/09/13 04:57:13;;;;;;;;;;;9.60;99.90;;;;;;5074115;28;19908;-76
2022/09/13 04:59:39;;;;;;;;;;;9.60;99.90;;;;;;5074015;28;19945;-75
2022/09/13 05:02:04;;;;;;;;;;;9.60;99.90;;;;;;5074353;28;19908;-75
2022/09/13 05:04:30;;;;;;;;;;;9.50;99.90;;;;;;5073904;28;20278;-75
2022/09/13 05:06:57;;;;;;;;;;;9.60;99.90;;;;;;5073367;28;19909;-75
2022/09/13 05:09:23;;;;;;;;;;;9.60;99.90;;;;;;5073856;28;20340;-75
2022/09/13 05:11:49;;;;;;;;;;;9.60;99.90;;;;;;5072283;28;19946;-75
2022/09/13 05:14:14;;;;;;;;;;;9.60;99.90;;;;;;5073860;28;19908;-75
2022/09/13 05:16:40;;;;;;;;;;;9.60;99.90;;;;;;5073716;28;19977;-75
2022/09/13 05:19:06;;;;;;;;;;;9.60;99.90;;;;;;5073142;28;20019;-76
2022/09/13 05:21:31;;;;;;;;;;;9.50;99.90;;;;;;5072442;28;19936;-75
2022/09/13 05:23:57;;;;;;;;;;;9.60;99.90;;;;;;5073518;28;19917;-76
2022/09/13 05:26:24;;;;;;;;;;;9.60;99.90;;;;;;5073731;28;19940;-76
2022/09/13 05:28:50;;;;;;;;;;;9.50;99.90;;;;;;5072873;28;19912;-75
2022/09/13 05:31:19;;;;;;;;;;;9.60;99.90;;;;;;5073353;28;19919;-76
2022/09/13 05:33:46;;;;;;;;;;;9.50;99.90;;;;;;5071733;28;19913;-75
2022/09/13 05:36:12;;;;;;;;;;;9.50;99.90;;;;;;5073837;28;20349;-75
2022/09/13 05:38:37;;;;;;;;;;;9.50;99.90;;;;;;5073594;28;19916;-74
2022/09/13 05:41:04;;;;;;;;;;;9.60;99.90;;;;;;5072917;28;19912;-75
2022/09/13 05:43:31;;;;;;;;;;;9.60;99.90;;;;;;5073111;28;19920;-75
2022/09/13 05:46:15;;;;;;;;;;;9.50;99.90;;;;;;5071566;28;19978;-75
2022/09/13 05:48:41;;;;;;;;;;;9.50;99.90;;;;;;5072096;28;20276;-74
2022/09/13 05:51:11;;;;;;;;;;;9.50;99.90;;;;;;5072834;28;19919;-74
2022/09/13 05:53:38;;;;;;;;;;;9.50;99.90;;;;;;5073301;28;19908;-75
2022/09/13 05:56:04;;;;;;;;;;;9.50;99.90;;;;;;5072692;28;19946;-75
2022/09/13 05:58:30;;;;;;;;;;;9.50;99.90;;;;;;5071682;28;19920;-75
2022/09/13 06:00:56;;;;;;;;;;;9.50;99.90;;;;;;5072529;28;20266;-75
2022/09/13 06:03:21;;;;;;;;;;;9.50;99.90;;;;;;5072921;28;19908;-75
2022/09/13 06:05:47;;;;;;;;;;;9.60;99.90;;;;;;5072543;28;19913;-75
2022/09/13 06:08:13;;;;;;;;;;;9.60;99.90;;;;;;5071773;28;19908;-76
2022/09/13 06:10:39;;;;;;;;;;;9.50;99.90;;;;;;5072983;28;19912;-75
2022/09/13 06:13:04;;;;;;;;;;;9.60;99.90;;;;;;5072472;28;19908;-75
2022/09/13 06:15:30;;;;;;;;;;;9.60;99.90;;;;;;5071594;28;19912;-76
2022/09/13 06:17:55;;;;;;;;;;;9.60;99.90;;;;;;5072373;28;19916;-75
2022/09/13 06:20:21;;;;;;;;;;;9.70;99.90;;;;;;5072967;28;19916;-75
2022/09/13 06:22:47;;;;;;;;;;;9.70;99.90;;;;;;5072301;28;19908;-74
2022/09/13 06:25:13;;;;;;;;;;;9.70;99.90;;;;;;5072660;28;20003;-76
2022/09/13 06:27:38;;;;;;;;;;;9.80;99.90;;;;;;5072565;28;20296;-75
2022/09/13 06:30:05;;;;;;;;;;;9.70;99.90;;;;;;5072367;28;19923;-76
2022/09/13 06:32:31;;;;;;;;;;;9.80;99.90;;;;;;5076309;28;19975;-75
2022/09/13 06:34:57;;;;;;;;;;;9.90;99.90;;;;;;5076272;28;20051;-76
2022/09/13 06:37:22;;;;;;;;;;;9.90;99.90;;;;;;5076958;28;19934;-76
2022/09/13 06:39:48;;;;;;;;;;;10.00;99.90;;;;;;5076113;28;19908;-75
2022/09/13 06:42:13;;;;;;;;;;;10.00;99.90;;;;;;5076652;28;20273;-75
2022/09/13 06:44:39;;;;;;;;;;;10.00;99.90;;;;;;5076751;28;19959;-75
2022/09/13 06:47:04;;;;;;;;;;;10.00;99.90;;;;;;5075798;28;19916;-75
2022/09/13 06:49:30;;;;;;;;;;;10.10;99.90;;;;;;5076665;28;20425;-76
2022/09/13 06:51:56;;;;;;;;;;;10.30;99.90;;;;;;5074653;28;19912;-76
2022/09/13 06:54:22;;;;;;;;;;;10.40;99.90;;;;;;5076739;28;19938;-74
2022/09/13 06:56:47;;;;;;;;;;;10.50;99.90;;;;;;5075920;28;19923;-74
2022/09/13 06:59:13;;;;;;;;;;;10.60;99.90;;;;;;5074902;28;19908;-75
2022/09/13 07:01:40;;;;;;;;;;;10.60;99.90;;;;;;5076169;28;19954;-75
2022/09/13 07:04:07;;;;;;;;;;;10.60;99.90;;;;;;5075740;28;19908;-75
2022/09/13 07:06:37;;;;;;;;;;;10.60;99.90;;;;;;5075094;28;19915;-75
2022/09/13 07:09:04;;;;;;;;;;;10.60;99.90;;;;;;5075721;28;19966;-75
2022/09/13 07:11:31;;;;;;;;;;;10.60;99.90;;;;;;5076058;28;19920;-76
2022/09/13 07:13:58;;;;;;;;;;;10.70;99.90;;;;;;5075257;28;19962;-73
2022/09/13 07:16:24;;;;;;;;;;;10.90;99.90;;;;;;5076143;28;19975;-75
2022/09/13 07:19:00;;;;;;;;;;;10.90;99.90;;;;;;5074699;28;19915;-75
2022/09/13 07:21:26;;;;;;;;;;;11.00;99.90;;;;;;5076097;28;19908;-75
2022/09/13 07:23:52;;;;;;;;;;;11.10;99.90;;;;;;5075306;28;19909;-74
2022/09/13 07:26:18;;;;;;;;;;;11.20;99.90;;;;;;5074700;28;20396;-75
2022/09/13 07:28:45;;;;;;;;;;;11.30;99.90;;;;;;5075810;28;19944;-75
2022/09/13 07:31:12;;;;;;;;;;;11.40;99.90;;;;;;5075371;28;19998;-75
2022/09/13 07:33:39;;;;;;;;;;;11.50;99.90;;;;;;5075701;28;19908;-77
2022/09/13 07:36:05;;;;;;;;;;;11.50;99.90;;;;;;5075722;28;19908;-75
2022/09/13 07:38:32;;;;;;;;;;;11.70;99.90;;;;;;5075497;28;20001;-75
2022/09/13 07:40:58;;;;;;;;;;;11.70;99.90;;;;;;5075070;28;19920;-76
2022/09/13 07:43:27;;;;;;;;;;;11.80;99.90;;;;;;5075497;28;19908;-75
2022/09/13 07:45:57;;;;;;;;;;;11.90;99.90;;;;;;5075272;28;19923;-74
2022/09/13 07:48:22;;;;;;;;;;;11.90;99.90;;;;;;5075571;28;19923;-76
2022/09/13 07:50:57;;;;;;;;;;;11.90;99.90;;;;;;5075087;28;20311;-75
2022/09/13 07:53:23;;;;;;;;;;;12.10;99.90;;;;;;5075858;28;19916;-75
2022/09/13 07:55:48;;;;;;;;;;;12.30;99.90;;;;;;5075473;28;19908;-75
2022/09/13 07:58:14;;;;;;;;;;;12.40;99.90;;;;;;5074820;28;19916;-76
2022/09/13 08:00:39;;;;;;;;;;;12.50;99.90;;;;;;5075409;28;19909;-75
2022/09/13 08:03:06;;;;;;;;;;;12.60;99.90;;;;;;5074817;28;19927;-75
2022/09/13 08:05:32;;;;;;;;;;;12.70;99.90;;;;;;5074989;28;19913;-76
2022/09/13 08:07:57;;;;;;;;;;;12.80;99.90;;;;;;5074720;28;19916;-75
2022/09/13 08:10:23;;;;;;;;;;;12.90;99.90;;;;;;5074884;28;19920;-75
2022/09/13 08:12:48;;;;;;;;;;;13.00;99.90;;;;;;5074994;28;19919;-75
2022/09/13 08:15:14;;;;;;;;;;;13.00;99.90;;;;;;5074618;28;20277;-76
2022/09/13 08:17:39;;;;;;;;;;;13.10;99.90;;;;;;5074958;28;20007;-76
2022/09/13 08:20:05;;;;;;;;;;;13.20;99.90;;;;;;5074291;28;20299;-76
2022/09/13 08:22:31;;;;;;;;;;;13.30;99.90;;;;;;5074035;28;19955;-77
2022/09/13 08:24:56;;;;;;;;;;;13.40;99.90;;;;;;5073603;28;20050;-74
2022/09/13 08:27:22;;;;;;;;;;;13.40;99.90;;;;;;5073203;28;20390;-75
2022/09/13 08:29:48;;;;;;;;;;;13.50;99.90;;;;;;5073973;28;19912;-75
2022/09/13 08:32:13;;;;;;;;;;;13.50;99.90;;;;;;5073397;28;19990;-74
2022/09/13 08:34:39;;;;;;;;;;;13.60;99.90;;;;;;5074088;28;19908;-76
2022/09/13 08:37:04;;;;;;;;;;;13.60;99.90;;;;;;5073797;28;19909;-75
2022/09/13 08:39:30;;;;;;;;;;;13.70;99.90;;;;;;5072901;28;19909;-75
2022/09/13 08:42:00;;;;;;;;;;;13.90;99.90;;;;;;5073428;28;19908;-73
2022/09/13 08:44:31;;;;;;;;;;;14.00;99.90;;;;;;5073530;28;19921;-76
2022/09/13 08:47:16;;;;;;;;;;;14.10;99.90;;;;;;5073367;28;19912;-74
2022/09/13 08:49:46;;;;;;;;;;;14.10;99.90;;;;;;5073644;28;19920;-76
2022/09/13 08:52:18;;;;;;;;;;;14.10;99.90;;;;;;5071865;28;20343;-76
2022/09/13 08:54:44;;;;;;;;;;;14.20;99.90;;;;;;5072745;28;19952;-76
2022/09/13 08:57:19;;;;;;;;;;;14.20;99.90;;;;;;5072538;28;19940;-75
2022/09/13 08:59:51;;;;;;;;;;;14.30;99.90;;;;;;5074182;28;19908;-76
2022/09/13 09:02:23;;;;;;;;;;;14.40;99.90;;;;;;5073786;28;20007;-76
2022/09/13 09:04:51;;;;;;;;;;;14.40;99.90;;;;;;5073549;28;20378;-75
2022/09/13 09:07:25;;;;;;;;;;;14.50;99.90;;;;;;5072652;28;19915;-75
2022/09/13 09:09:53;;;;;;;;;;;14.60;99.90;;;;;;5073536;28;19951;-75
2022/09/13 09:12:27;;;;;;;;;;;14.60;99.90;;;;;;5073270;28;19912;-75
2022/09/13 09:14:58;;;;;;;;;;;14.60;99.90;;;;;;5073961;28;19908;-75
2022/09/13 09:17:41;;;;;;;;;;;14.50;99.90;;;;;;5073808;28;19913;-75
2022/09/13 09:20:07;;;;;;;;;;;14.60;99.90;;;;;;5073263;28;19908;-75
2022/09/13 09:22:34;;;;;;;;;;;14.60;99.90;;;;;;5073450;28;19916;-74
2022/09/13 09:25:00;;;;;;;;;;;14.70;99.90;;;;;;5071754;28;19908;-74
2022/09/13 09:27:28;;;;;;;;;;;14.60;99.90;;;;;;5073466;28;20250;-75
2022/09/13 09:29:57;;;;;;;;;;;14.80;99.90;;;;;;5073560;28;20353;-75
2022/09/13 09:32:25;;;;;;;;;;;14.80;99.90;;;;;;5073142;28;19912;-75
2022/09/13 09:35:09;;;;;;;;;;;15.00;99.90;;;;;;5073456;28;19909;-75
2022/09/13 09:37:36;;;;;;;;;;;14.90;99.90;;;;;;5073195;28;19944;-75
2022/09/13 09:40:06;;;;;;;;;;;15.00;99.90;;;;;;5072655;28;20374;-74
2022/09/13 09:42:38;;;;;;;;;;;15.00;99.90;;;;;;5072279;28;19914;-75
2022/09/13 09:45:05;;;;;;;;;;;15.10;99.90;;;;;;5072511;28;19966;-75
2022/09/13 09:47:38;;;;;;;;;;;15.10;99.90;;;;;;5073348;28;19912;-75
2022/09/13 09:50:13;;;;;;;;;;;15.10;99.90;;;;;;5072653;28;19912;-75
2022/09/13 09:52:51;;;;;;;;;;;15.30;99.90;;;;;;5073194;28;19944;-75
2022/09/13 09:55:20;;;;;;;;;;;15.20;99.90;;;;;;5072643;28;19919;-74
2022/09/13 09:57:59;;;;;;;;;;;15.20;99.90;;;;;;5072258;28;19916;-75
2022/09/13 10:00:28;;;;;;;;;;;15.20;99.90;;;;;;5073342;28;19962;-75
2022/09/13 10:02:56;;;;;;;;;;;15.20;99.90;;;;;;5073549;28;19916;-75
2022/09/13 10:05:22;;;;;;;;;;;15.30;99.90;;;;;;5072568;28;19963;-75
2022/09/13 10:07:59;;;;;;;;;;;15.20;99.90;;;;;;5071758;28;19909;-75
2022/09/13 10:10:30;;;;;;;;;;;15.30;99.90;;;;;;5072848;28;19912;-75
2022/09/13 10:12:56;;;;;;;;;;;15.30;99.90;;;;;;5072769;28;20296;-75
2022/09/13 10:15:28;;;;;;;;;;;15.30;99.90;;;;;;5072439;28;20007;-75
2022/09/13 10:18:04;;;;;;;;;;;15.50;99.90;;;;;;5073182;28;20003;-75
2022/09/13 10:20:30;;;;;;;;;;;15.60;99.90;;;;;;5072920;28;19908;-75
2022/09/13 10:23:09;;;;;;;;;;;15.70;99.90;;;;;;5072696;28;20319;-75
2022/09/13 10:25:36;;;;;;;;;;;15.70;99.90;;;;;;5072870;28;19912;-74
2022/09/13 10:28:03;;;;;;;;;;;15.70;99.90;;;;;;5072480;28;19912;-74
2022/09/13 10:30:35;;;;;;;;;;;15.70;99.90;;;;;;5072847;28;19912;-75
2022/09/13 10:33:01;;;;;;;;;;;15.70;99.90;;;;;;5072530;28;19916;-74
2022/09/13 10:35:28;;;;;;;;;;;15.60;99.90;;;;;;5073124;28;19909;-75
2022/09/13 10:37:53;;;;;;;;;;;15.60;99.90;;;;;;5073119;28;19936;-75
2022/09/13 10:40:19;;;;;;;;;;;15.70;99.90;;;;;;5072588;28;19959;-75
2022/09/13 10:42:53;;;;;;;;;;;15.70;99.90;;;;;;5073053;28;19930;-75
2022/09/13 10:45:22;;;;;;;;;;;15.60;99.90;;;;;;5071964;28;19920;-75
2022/09/13 10:47:50;;;;;;;;;;;15.50;99.90;;;;;;5072639;28;19967;-75
2022/09/13 10:50:19;;;;;;;;;;;15.60;99.90;;;;;;5072073;28;19966;-75
2022/09/13 10:52:54;;;;;;;;;;;15.60;99.90;;;;;;5072534;28;20011;-75
2022/09/13 10:55:28;;;;;;;;;;;15.60;99.90;;;;;;5071841;28;19909;-76
2022/09/13 10:57:53;;;;;;;;;;;15.60;99.90;;;;;;5072677;28;19909;-76
2022/09/13 11:00:29;;;;;;;;;;;15.60;99.90;;;;;;5072062;28;19962;-76
2022/09/13 11:03:14;;;;;;;;;;;15.60;99.90;;;;;;5072769;28;20255;-76
2022/09/13 11:05:58;;;;;;;;;;;15.50;99.90;;;;;;5071333;28;19948;-76
2022/09/13 11:08:38;;;;;;;;;;;15.60;99.90;;;;;;5071629;28;19904;-76
2022/09/13 11:11:10;;;;;;;;;;;15.50;99.90;;;;;;5072013;28;19917;-75
2022/09/13 11:13:54;;;;;;;;;;;15.40;99.90;;;;;;5072456;28;19908;-75
2022/09/13 11:16:31;;;;;;;;;;;15.50;99.90;;;;;;5070597;28;19916;-76
2022/09/13 11:19:05;;;;;;;;;;;15.50;99.90;;;;;;5074430;28;19959;-76
2022/09/13 11:21:57;;;;;;;;;;;15.50;99.90;;;;;;5076156;28;19921;-76
2022/09/13 11:24:22;;;;;;;;;;;15.60;99.90;;;;;;5075329;28;19927;-75
2022/09/13 11:26:48;;;;;;;;;;;15.60;99.90;;;;;;5075140;28;19916;-75
2022/09/13 11:29:36;;;;;;;;;;;15.60;99.90;;;;;;5075070;28;19916;-75
2022/09/13 11:32:05;;;;;;;;;;;15.60;99.90;;;;;;5075590;28;20003;-76
2022/09/13 11:35:03;;;;;;;;;;;15.60;99.90;;;;;;5075068;28;19909;-76
2022/09/13 11:37:39;;;;;;;;;;;15.60;99.90;;;;;;5061931;28;19909;-75
2022/09/13 11:40:23;;;;;;;;;;;15.70;99.90;;;;;;5074971;28;19913;-75
2022/09/13 11:42:49;;;;;;;;;;;15.80;99.90;;;;;;5075528;28;19909;-75
2022/09/13 11:45:20;;;;;;;;;;;15.80;99.90;;;;;;5074417;28;20011;-75
2022/09/13 11:48:07;;;;;;;;;;;15.90;99.90;;;;;;5073743;28;20254;-75
2022/09/13 11:50:38;;;;;;;;;;;16.00;99.90;;;;;;5075304;28;19912;-74
2022/09/13 11:53:04;;;;;;;;;;;15.90;99.90;;;;;;5074772;28;19919;-73
2022/09/13 11:55:35;;;;;;;;;;;15.90;99.90;;;;;;5074333;28;19908;-74
2022/09/13 11:58:09;;;;;;;;;;;16.10;99.90;;;;;;5073586;28;19908;-74
2022/09/13 12:00:54;;;;;;;;;;;16.20;99.90;;;;;;5075091;28;19908;-75
2022/09/13 12:03:24;;;;;;;;;;;16.30;99.90;;;;;;5074015;28;19950;-75
2022/09/13 12:05:52;;;;;;;;;;;16.20;99.90;;;;;;5074511;28;19909;-75
2022/09/13 12:08:36;;;;;;;;;;;16.30;99.90;;;;;;5073833;28;20431;-75
2022/09/13 12:11:09;;;;;;;;;;;16.30;99.90;;;;;;5073226;28;19966;-74
2022/09/13 12:13:55;;;;;;;;;;;16.40;99.90;;;;;;5074395;28;19971;-75
2022/09/13 12:16:41;;;;;;;;;;;16.30;99.90;;;;;;5073573;28;19966;-75
2022/09/13 12:19:17;;;;;;;;;;;16.40;99.90;;;;;;5073541;28;19931;-74
2022/09/13 12:21:43;;;;;;;;;;;16.40;99.90;;;;;;5074425;28;20041;-75
2022/09/13 12:24:33;;;;;;;;;;;16.40;99.90;;;;;;5077260;28;19920;-75
2022/09/13 12:27:02;;;;;;;;;;;16.50;99.90;;;;;;5081958;28;19958;-76
2022/09/13 12:29:35;;;;;;;;;;;16.40;99.90;;;;;;5080688;28;19991;-75
2022/09/13 12:32:04;;;;;;;;;;;16.50;99.90;;;;;;5094169;28;19916;-75
2022/09/13 12:34:36;;;;;;;;;;;16.50;99.90;;;;;;5093468;28;20003;-75
2022/09/13 12:37:08;;;;;;;;;;;16.60;99.90;;;;;;5093882;28;19908;-75
2022/09/13 12:39:42;;;;;;;;;;;16.50;99.90;;;;;;5094679;28;20269;-75
2022/09/13 12:42:20;;;;;;;;;;;16.50;99.90;;;;;;5094337;28;19959;-75
2022/09/13 12:44:45;;;;;;;;;;;16.60;99.90;;;;;;5094750;28;20258;-75
2022/09/13 12:47:26;;;;;;;;;;;16.60;99.90;;;;;;5093014;28;19938;-75
2022/09/13 12:49:52;;;;;;;;;;;16.70;99.90;;;;;;5094336;28;19927;-75
2022/09/13 12:52:30;;;;;;;;;;;16.90;99.90;;;;;;5074163;28;19916;-76
2022/09/13 12:55:15;;;;;;;;;;;17.00;99.90;;;;;;5075710;28;19912;-76
2022/09/13 12:58:01;;;;;;;;;;;17.00;99.90;;;;;;5082787;28;21305;-75
2022/09/13 13:00:33;;;;;;;;;;;16.80;99.90;;;;;;5076053;28;20329;-75
2022/09/13 13:03:04;;;;;;;;;;;16.60;99.90;;;;;;5073620;28;19909;-75
2022/09/13 13:05:37;;;;;;;;;;;16.70;99.90;;;;;;5073402;28;19908;-76
2022/09/13 13:08:04;;;;;;;;;;;16.90;99.90;;;;;;5073807;28;20378;-74
2022/09/13 13:10:34;;;;;;;;;;;17.00;99.90;;;;;;5072541;28;20004;-75
2022/09/13 13:13:10;;;;;;;;;;;17.20;99.90;;;;;;5073036;28;19912;-75
2022/09/13 13:15:36;;;;;;;;;;;17.30;99.90;;;;;;5073021;28;20361;-76
2022/09/13 13:18:21;;;;;;;;;;;17.30;99.90;;;;;;5073354;28;19965;-75
2022/09/13 13:20:52;;;;;;;;;;;17.20;99.90;;;;;;5073354;28;20415;-75
2022/09/13 13:23:35;;;;;;;;;;;17.10;99.90;;;;;;5072683;28;19915;-75
2022/09/13 13:26:19;;;;;;;;;;;17.20;99.90;;;;;;5072962;28;19908;-75
2022/09/13 13:31:30;;;;;;;;;;;17.10;99.90;;;;;;5072367;28;19963;-75
2022/09/13 13:34:07;;;;;;;;;;;17.00;99.90;;;;;;5072442;28;20019;-75
2022/09/13 13:36:38;;;;;;;;;;;16.90;99.90;;;;;;5072578;28;19909;-74
2022/09/13 13:39:08;;;;;;;;;;;17.00;99.90;;;;;;5072551;28;19916;-74
2022/09/13 13:41:34;;;;;;;;;;;17.20;99.90;;;;;;5072239;28;19951;-74
2022/09/13 13:44:01;;;;;;;;;;;17.20;99.90;;;;;;5071142;28;19971;-75
2022/09/13 13:46:30;;;;;;;;;;;17.30;99.90;;;;;;5072331;28;19916;-74
2022/09/13 13:49:16;;;;;;;;;;;17.30;99.90;;;;;;5071417;28;20011;-75
2022/09/13 13:51:42;;;;;;;;;;;17.20;99.90;;;;;;5072422;28;20442;-75
2022/09/13 13:54:26;;;;;;;;;;;17.20;99.90;;;;;;5072329;28;19913;-74
2022/09/13 13:56:52;;;;;;;;;;;17.30;99.90;;;;;;5070885;28;20285;-74
2022/09/13 13:59:26;;;;;;;;;;;17.40;99.90;;;;;;5071886;28;19909;-74
2022/09/13 14:01:53;;;;;;;;;;;17.40;99.90;;;;;;5071189;28;19913;-75
2022/09/13 14:04:38;;;;;;;;;;;17.40;99.90;;;;;;5071928;28;19916;-74
2022/09/13 14:07:28;;;;;;;;;;;17.40;99.90;;;;;;5071239;28;19909;-75
2022/09/13 14:10:19;;;;;;;;;;;17.70;99.90;;;;;;5071243;28;20419;-75
2022/09/13 14:12:48;;;;;;;;;;;17.80;99.90;;;;;;5071300;28;20008;-75
2022/09/13 14:15:21;;;;;;;;;;;17.80;99.90;;;;;;5071599;28;19909;-74
2022/09/13 14:18:07;;;;;;;;;;;17.70;99.90;;;;;;5072521;28;19955;-75
2022/09/13 14:20:33;;;;;;;;;;;17.50;99.90;;;;;;5071187;28;19973;-74
2022/09/13 14:23:32;;;;;;;;;;;17.50;99.90;;;;;;5072685;28;19943;-74
2022/09/13 14:25:59;;;;;;;;;;;17.60;99.90;;;;;;5070661;28;20323;-74
2022/09/13 14:28:25;;;;;;;;;;;17.70;99.90;;;;;;5071204;28;20347;-74
2022/09/13 14:30:53;;;;;;;;;;;17.80;99.90;;;;;;5072152;28;19936;-75
2022/09/13 14:33:23;;;;;;;;;;;17.70;99.90;;;;;;5071839;28;19919;-75
2022/09/13 14:35:56;;;;;;;;;;;17.70;99.90;;;;;;5072723;28;19932;-75
2022/09/13 14:38:24;;;;;;;;;;;17.70;99.90;;;;;;5071672;28;19913;-76
2022/09/13 14:40:51;;;;;;;;;;;17.80;99.90;;;;;;5080426;28;20415;-74